Time;durP1;ratioP1;P1;durP2;ratioP2;P2;SDS_P1;SDS_P2;PMS_P1;PMS_P2;Temp;Humidity;BMP_temperature;BMP_pressure;BME280_temperature;BME280_humidity;BME280_pressure;Samples;Min_cycle;Max_cycle;Signal;HPM_P1;HPM_P2
2022/12/29 00:02:16;;;;;;;3.40;2.08;;;10.60;99.90;;;;;;5072453;28;20028;-54
2022/12/29 00:04:41;;;;;;;3.63;1.98;;;10.60;99.90;;;;;;5073422;28;20483;-55
2022/12/29 00:07:07;;;;;;;4.93;2.72;;;10.60;99.90;;;;;;5072742;28;20037;-56
2022/12/29 00:09:33;;;;;;;13.18;8.10;;;10.60;99.90;;;;;;5072599;28;20507;-57
2022/12/29 00:12:00;;;;;;;8.35;2.20;;;10.60;99.90;;;;;;5072009;28;20036;-58
2022/12/29 00:17:11;;;;;;;;;;;10.60;99.90;;;;;;5073540;28;20094;-58
2022/12/29 00:36:35;;;;;;;4.47;1.93;;;11.30;99.90;;;;;;5071667;28;20035;-51
2022/12/29 00:44:34;;;;;;;2.80;1.83;;;11.40;99.90;;;;;;5072605;28;20451;-52
2022/12/29 00:47:04;;;;;;;2.58;1.73;;;11.40;99.90;;;;;;5072078;28;20056;-57
2022/12/29 00:49:32;;;;;;;4.03;2.08;;;11.40;99.90;;;;;;5072079;28;20020;-56
2022/12/29 00:52:06;;;;;;;4.38;1.83;;;11.30;99.90;;;;;;5071343;28;20024;-56
2022/12/29 00:54:34;;;;;;;1.40;1.30;;;11.30;99.90;;;;;;5071804;28;20059;-55
2022/12/29 00:57:01;;;;;;;4.10;1.95;;;12.40;99.90;;;;;;5070795;28;20024;-58
2022/12/29 00:59:26;;;;;;;5.88;2.08;;;11.30;99.90;;;;;;5072217;28;20055;-59
2022/12/29 01:01:53;;;;;;;4.15;1.70;;;11.30;99.90;;;;;;5071402;28;20082;-53
2022/12/29 01:04:20;;;;;;;2.60;1.98;;;11.30;99.90;;;;;;5053296;28;20413;-54
2022/12/29 01:06:46;;;;;;;2.28;1.65;;;11.30;99.90;;;;;;5071662;28;20036;-56
2022/12/29 01:14:36;;;;;;;5.53;1.73;;;11.30;99.90;;;;;;5086880;28;20052;-47
2022/12/29 01:17:01;;;;;;;1.50;1.40;;;11.20;99.90;;;;;;5073342;28;20062;-47
2022/12/29 01:19:27;;;;;;;5.20;1.83;;;11.30;99.90;;;;;;5091338;28;20079;-50
2022/12/29 01:21:53;;;;;;;1.80;1.70;;;11.30;99.90;;;;;;5091187;28;20067;-46
2022/12/29 01:24:21;;;;;;;4.10;1.70;;;11.20;99.90;;;;;;5091704;28;20407;-47
2022/12/29 01:26:46;;;;;;;1.50;1.40;;;11.20;99.90;;;;;;5091516;28;20066;-48
2022/12/29 01:29:12;;;;;;;2.42;1.48;;;11.20;99.90;;;;;;5091623;28;20067;-46
2022/12/29 01:31:38;;;;;;;2.42;1.73;;;11.20;99.90;;;;;;5091772;28;20028;-48
2022/12/29 01:34:04;;;;;;;1.85;1.50;;;11.30;99.90;;;;;;5091435;28;20020;-45
2022/12/29 01:36:30;;;;;;;7.18;1.67;;;11.20;99.90;;;;;;5073401;28;20032;-48
2022/12/29 01:38:56;;;;;;;2.33;1.65;;;11.30;99.90;;;;;;5091849;28;20020;-48
2022/12/29 01:41:21;;;;;;;3.80;1.20;;;11.30;99.90;;;;;;5091361;28;20032;-50
2022/12/29 01:44:01;;;;;;;2.88;1.50;;;11.30;99.90;;;;;;5090734;28;20028;-44
2022/12/29 01:46:35;;;;;;;3.35;1.20;;;11.20;99.90;;;;;;5091532;28;20051;-46
2022/12/29 01:49:24;;;;;;;2.50;1.60;;;11.30;99.90;;;;;;5095177;28;20024;-47
2022/12/29 01:52:05;;;;;;;2.28;2.08;;;11.30;99.90;;;;;;5095485;28;20020;-46
2022/12/29 01:54:47;;;;;;;2.10;1.42;;;11.30;99.90;;;;;;5095950;28;20099;-50
2022/12/29 01:57:20;;;;;;;2.17;1.33;;;11.30;99.90;;;;;;5094588;28;20024;-49
2022/12/29 02:00:03;;;;;;;2.47;1.15;;;11.30;99.90;;;;;;5095673;28;20487;-48
2022/12/29 02:02:29;;;;;;;1.08;0.90;;;11.30;99.90;;;;;;5094697;28;20125;-45
2022/12/29 02:04:57;;;;;;;2.60;0.90;;;11.30;99.90;;;;;;5095800;28;20059;-49
2022/12/29 02:07:26;;;;;;;1.42;0.90;;;11.10;99.90;;;;;;5095334;28;20031;-51
2022/12/29 02:09:54;;;;;;;1.20;1.10;;;11.40;99.90;;;;;;5095545;28;20026;-48
2022/12/29 02:12:22;;;;;;;1.90;1.17;;;11.50;99.90;;;;;;5094243;28;20107;-48
2022/12/29 02:14:50;;;;;;;0.93;0.93;;;11.50;99.90;;;;;;5095221;28;20462;-47
2022/12/29 02:17:27;;;;;;;1.25;1.15;;;11.50;99.90;;;;;;5095231;28;20047;-50
2022/12/29 02:20:17;;;;;;;1.60;0.88;;;11.60;99.90;;;;;;5095232;28;20079;-48
2022/12/29 02:23:05;;;;;;;2.63;1.00;;;11.50;99.90;;;;;;5094408;28;20107;-47
2022/12/29 02:25:59;;;;;;;4.07;1.65;;;11.50;99.90;;;;;;5076887;28;20024;-45
2022/12/29 02:28:47;;;;;;;0.90;0.82;;;11.60;99.90;;;;;;5094938;28;20397;-49
2022/12/29 02:31:31;;;;;;;2.13;1.20;;;11.60;99.90;;;;;;5094977;28;20454;-46
2022/12/29 02:34:37;;;;;;;1.00;0.90;;;11.60;99.90;;;;;;5094249;28;20024;-49
2022/12/29 02:37:11;;;;;;;1.03;1.03;;;11.60;99.90;;;;;;5094629;28;20039;-47
2022/12/29 02:39:39;;;;;;;1.45;1.15;;;11.60;99.90;;;;;;5094710;28;20281;-50
2022/12/29 02:42:35;;;;;;;3.15;1.02;;;11.60;99.90;;;;;;5093672;28;20488;-49
2022/12/29 02:45:12;;;;;;;;;;;11.50;99.90;;;;;;5095182;28;20115;-48
2022/12/29 02:47:59;;;;;;;2.17;1.10;;;11.40;99.90;;;;;;5094877;28;19904;-47
2022/12/29 02:50:36;;;;;;;1.70;1.30;;;11.40;99.90;;;;;;5094711;28;20023;-47
2022/12/29 02:53:06;;;;;;;4.05;1.15;;;11.40;99.90;;;;;;5093708;28;20016;-45
2022/12/29 02:55:32;;;;;;;1.92;1.05;;;11.40;99.90;;;;;;5094702;28;20055;-46
2022/12/29 02:58:18;;;;;;;3.55;1.15;;;11.50;99.90;;;;;;5093527;28;20068;-48
2022/12/29 03:01:07;;;;;;;1.17;1.02;;;11.50;99.90;;;;;;5093919;28;20020;-47
2022/12/29 03:04:01;;;;;;;2.78;1.30;;;11.50;99.90;;;;;;5093468;28;20031;-44
2022/12/29 03:06:38;;;;;;;2.83;1.20;;;11.50;99.90;;;;;;5094365;28;20394;-46
2022/12/29 03:09:24;;;;;;;1.80;1.00;;;11.60;99.90;;;;;;5075888;28;20066;-49
2022/12/29 03:12:10;;;;;;;1.42;1.27;;;11.60;99.90;;;;;;5093789;28;20016;-45
2022/12/29 03:17:51;;;;;;;1.67;1.00;;;11.60;99.90;;;;;;5093948;28;20408;-49
2022/12/29 03:20:24;;;;;;;1.13;1.00;;;11.60;99.90;;;;;;5094092;28;20095;-47
2022/12/29 03:22:54;;;;;;;2.22;1.08;;;11.70;99.90;;;;;;5092945;28;20024;-47
2022/12/29 03:25:22;;;;;;;3.08;1.20;;;11.70;99.90;;;;;;5093788;28;20028;-46
2022/12/29 03:28:01;;;;;;;2.00;1.20;;;11.70;99.90;;;;;;5094158;28;20107;-45
2022/12/29 03:30:29;;;;;;;3.88;1.60;;;11.70;99.90;;;;;;5093719;28;20027;-48
2022/12/29 03:33:02;;;;;;;2.00;1.45;;;11.70;99.90;;;;;;5074737;28;20020;-45
2022/12/29 03:35:32;;;;;;;1.10;1.00;;;11.60;99.90;;;;;;5075497;28;20020;-52
2022/12/29 03:38:23;;;;;;;1.70;1.60;;;11.60;99.90;;;;;;5075441;28;20020;-45
2022/12/29 03:40:55;;;;;;;1.20;1.10;;;11.70;99.90;;;;;;5095293;28;20024;-45
2022/12/29 03:43:21;;;;;;;1.30;1.20;;;11.70;99.90;;;;;;5075140;28;20119;-45
2022/12/29 03:45:46;;;;;;;1.90;1.23;;;11.80;99.90;;;;;;5093358;28;20085;-44
2022/12/29 03:48:12;;;;;;;1.95;1.20;;;11.80;99.90;;;;;;5093573;28;20464;-52
2022/12/29 03:50:37;;;;;;;3.72;1.42;;;11.80;99.90;;;;;;5093426;28;20043;-45
2022/12/29 03:53:03;;;;;;;1.35;1.20;;;11.90;99.90;;;;;;5092548;28;20484;-46
2022/12/29 03:55:29;;;;;;;2.05;1.15;;;11.90;99.90;;;;;;5093334;28;20487;-46
2022/12/29 03:57:54;;;;;;;2.05;1.10;;;11.90;99.90;;;;;;5091798;28;20031;-47
2022/12/29 04:00:20;;;;;;;1.77;1.25;;;11.90;99.90;;;;;;5093121;28;20051;-45
2022/12/29 04:02:46;;;;;;;1.88;1.48;;;12.00;99.90;;;;;;5092419;28;20016;-46
2022/12/29 04:05:12;;;;;;;1.35;1.20;;;12.00;99.90;;;;;;5092675;28;20024;-49
2022/12/29 04:07:37;;;;;;;3.30;1.85;;;12.00;99.90;;;;;;5092902;28;20538;-45
2022/12/29 04:10:03;;;;;;;1.88;1.67;;;12.00;99.90;;;;;;5092787;28;20496;-50
2022/12/29 04:12:28;;;;;;;2.92;1.42;;;12.10;99.90;;;;;;5092319;28;20024;-45
2022/12/29 04:14:54;;;;;;;2.05;1.30;;;12.10;99.90;;;;;;5092797;28;20024;-48
2022/12/29 04:17:19;;;;;;;2.88;1.15;;;12.10;99.90;;;;;;5092959;28;20020;-46
2022/12/29 04:19:45;;;;;;;3.38;1.45;;;12.20;99.90;;;;;;5092784;28;20456;-47
2022/12/29 04:22:11;;;;;;;3.45;1.58;;;12.10;99.90;;;;;;5091933;28;20059;-46
2022/12/29 04:24:37;;;;;;;3.45;1.25;;;12.20;99.90;;;;;;5092572;28;20028;-45
2022/12/29 04:27:02;;;;;;;4.90;1.52;;;12.20;99.90;;;;;;5092619;28;20130;-45
2022/12/29 04:29:28;;;;;;;2.45;1.30;;;12.20;99.90;;;;;;5092412;28;20172;-47
2022/12/29 04:31:53;;;;;;;1.95;1.52;;;12.20;99.90;;;;;;5092429;28;20103;-44
2022/12/29 04:34:19;;;;;;;4.57;1.60;;;12.20;99.90;;;;;;5092351;28;20060;-46
2022/12/29 04:36:44;;;;;;;1.67;1.20;;;12.20;99.90;;;;;;5092485;28;20027;-46
2022/12/29 04:39:10;;;;;;;2.80;1.35;;;12.30;99.90;;;;;;5092672;28;20502;-44
2022/12/29 04:41:35;;;;;;;2.45;1.27;;;12.30;99.90;;;;;;5092180;28;20024;-45
2022/12/29 04:44:01;;;;;;;2.75;1.40;;;12.30;99.90;;;;;;5092145;28;20032;-45
2022/12/29 04:46:27;;;;;;;5.00;1.20;;;12.30;99.90;;;;;;5092444;28;20494;-48
2022/12/29 04:48:52;;;;;;;2.40;1.10;;;12.40;99.90;;;;;;5092157;28;20039;-45
2022/12/29 04:51:18;;;;;;;3.13;0.95;;;12.40;99.90;;;;;;5092268;28;20024;-44
2022/12/29 04:53:43;;;;;;;1.48;1.38;;;12.40;99.90;;;;;;5091391;28;20028;-48
2022/12/29 04:56:09;;;;;;;4.07;1.38;;;12.40;99.90;;;;;;5090849;28;20362;-45
2022/12/29 04:58:35;;;;;;;3.38;1.02;;;12.40;99.90;;;;;;5092019;28;20047;-45
2022/12/29 05:01:00;;;;;;;2.47;1.00;;;12.40;99.90;;;;;;5092104;28;20032;-44
2022/12/29 05:03:26;;;;;;;1.75;1.30;;;12.40;99.90;;;;;;5091196;28;20112;-46
2022/12/29 05:05:56;;;;;;;1.45;1.33;;;12.30;99.90;;;;;;5092394;28;20442;-45
2022/12/29 05:08:22;;;;;;;2.97;1.25;;;12.40;99.90;;;;;;5091901;28;20020;-45
2022/12/29 05:10:50;;;;;;;1.23;1.10;;;12.40;99.90;;;;;;5092374;28;20056;-47
2022/12/29 05:13:16;;;;;;;5.20;1.30;;;12.40;99.90;;;;;;5091074;28;20092;-47
2022/12/29 05:15:48;;;;;;;2.60;0.90;;;12.40;99.90;;;;;;5091784;28;20095;-45
2022/12/29 05:18:13;;;;;;;4.15;1.08;;;12.30;99.90;;;;;;5092139;28;20151;-45
2022/12/29 05:20:39;;;;;;;3.10;1.35;;;12.30;99.90;;;;;;5091673;28;20104;-43
2022/12/29 05:23:04;;;;;;;2.20;1.10;;;12.30;99.90;;;;;;5090433;28;20032;-45
2022/12/29 05:25:30;;;;;;;1.63;1.25;;;12.30;99.90;;;;;;5091966;28;20024;-45
2022/12/29 05:27:55;;;;;;;3.42;1.30;;;12.40;99.90;;;;;;5092281;28;20024;-47
2022/12/29 05:30:20;;;;;;;3.22;1.33;;;12.30;99.90;;;;;;5073362;28;20115;-47
2022/12/29 05:32:46;;;;;;;3.15;1.25;;;12.30;99.90;;;;;;5072759;28;20031;-46
2022/12/29 05:35:11;;;;;;;2.95;1.55;;;12.30;99.90;;;;;;5091601;28;20024;-46
2022/12/29 05:37:38;;;;;;;4.00;1.27;;;12.30;99.90;;;;;;5091405;28;20051;-50
2022/12/29 05:40:04;;;;;;;4.40;1.00;;;12.30;99.90;;;;;;5091468;28;20496;-47
2022/12/29 05:42:29;;;;;;;1.58;1.15;;;12.40;99.90;;;;;;5090614;28;20026;-51
2022/12/29 05:44:55;;;;;;;2.20;1.95;;;12.40;99.90;;;;;;5091348;28;20053;-48
2022/12/29 05:47:20;;;;;;;1.95;0.77;;;12.40;99.90;;;;;;5091431;28;20028;-49
2022/12/29 05:49:46;;;;;;;2.05;1.02;;;12.40;99.90;;;;;;5091214;28;20547;-44
2022/12/29 05:52:11;;;;;;;2.35;0.80;;;12.40;99.90;;;;;;5090425;28;20043;-48
2022/12/29 05:54:37;;;;;;;1.90;1.23;;;12.40;99.90;;;;;;5091272;28;20058;-48
2022/12/29 05:57:02;;;;;;;1.65;1.10;;;12.40;99.90;;;;;;5090241;28;20024;-49
2022/12/29 05:59:28;;;;;;;2.15;1.20;;;12.40;99.90;;;;;;5091193;28;20551;-46
2022/12/29 06:01:53;;;;;;;1.88;1.17;;;12.50;99.90;;;;;;5090797;28;20036;-48
2022/12/29 06:04:19;;;;;;;1.95;1.38;;;12.50;99.90;;;;;;5091285;28;20465;-48
2022/12/29 06:06:44;;;;;;;1.33;1.23;;;12.60;99.90;;;;;;5091347;28;20028;-47
2022/12/29 06:09:10;;;;;;;4.85;1.40;;;12.50;99.90;;;;;;5091099;28;20028;-50
2022/12/29 06:11:36;;;;;;;2.00;1.08;;;12.50;99.90;;;;;;5091382;28;20024;-48
2022/12/29 06:14:01;;;;;;;2.45;1.75;;;12.50;99.90;;;;;;5072213;28;20487;-47
2022/12/29 06:16:27;;;;;;;4.50;3.28;;;12.50;99.90;;;;;;5091287;28;20032;-48
2022/12/29 06:18:52;;;;;;;1.38;1.10;;;12.60;99.90;;;;;;5091215;28;20027;-45
2022/12/29 06:21:18;;;;;;;1.83;1.30;;;12.60;99.90;;;;;;5091013;28;20135;-46
2022/12/29 06:23:43;;;;;;;3.15;1.50;;;12.70;99.90;;;;;;5090322;28;20150;-44
2022/12/29 06:26:09;;;;;;;3.75;1.75;;;12.70;99.90;;;;;;5090850;28;20028;-45
2022/12/29 06:28:34;;;;;;;4.35;1.10;;;12.70;99.90;;;;;;5091043;28;20069;-50
2022/12/29 06:31:01;;;;;;;2.25;1.35;;;12.60;99.90;;;;;;5090827;28;20387;-47
2022/12/29 06:33:27;;;;;;;1.60;1.50;;;12.70;99.90;;;;;;5090648;28;20028;-45
2022/12/29 06:35:52;;;;;;;1.67;1.38;;;12.60;99.90;;;;;;5094153;28;20069;-46
2022/12/29 06:38:18;;;;;;;3.58;1.83;;;12.70;99.90;;;;;;5094723;28;20479;-43
2022/12/29 06:40:44;;;;;;;2.08;1.20;;;12.60;99.90;;;;;;5094739;28;20016;-44
2022/12/29 06:43:10;;;;;;;4.68;1.65;;;12.60;99.90;;;;;;5093882;28;20428;-46
2022/12/29 06:45:39;;;;;;;3.10;1.35;;;12.60;99.90;;;;;;5094566;28;20076;-46
2022/12/29 06:48:05;;;;;;;3.60;1.45;;;12.60;99.90;;;;;;5094470;28;20070;-47
2022/12/29 06:50:30;;;;;;;2.15;1.80;;;12.60;99.90;;;;;;5094431;28;20070;-45
2022/12/29 06:52:56;;;;;;;5.85;1.65;;;12.50;99.90;;;;;;5093970;28;20365;-44
2022/12/29 06:55:22;;;;;;;3.15;2.08;;;12.50;99.90;;;;;;5094342;28;20024;-46
2022/12/29 06:57:47;;;;;;;2.72;1.50;;;12.50;99.90;;;;;;5075078;28;20424;-49
2022/12/29 07:00:13;;;;;;;3.17;1.60;;;12.50;99.90;;;;;;5094510;28;20115;-44
2022/12/29 07:02:39;;;;;;;3.95;1.73;;;12.50;99.90;;;;;;5094124;28;20024;-48
2022/12/29 07:05:04;;;;;;;1.70;1.60;;;12.50;99.90;;;;;;5094261;28;20483;-46
2022/12/29 07:07:30;;;;;;;2.40;1.73;;;12.40;99.90;;;;;;5094109;28;20059;-51
2022/12/29 07:09:55;;;;;;;2.65;1.55;;;12.50;99.90;;;;;;5094108;28;20488;-45
2022/12/29 07:12:21;;;;;;;2.88;1.48;;;12.50;99.90;;;;;;5093326;28;20021;-47
2022/12/29 07:14:46;;;;;;;6.00;1.48;;;12.60;99.90;;;;;;5117234;22;20407;-55
2022/12/29 07:17:12;;;;;;;2.90;1.75;;;12.60;99.90;;;;;;5094077;28;20024;-60
2022/12/29 07:19:37;;;;;;;5.78;1.80;;;12.60;99.90;;;;;;5075946;28;20024;-57
2022/12/29 07:22:03;;;;;;;7.57;1.90;;;12.60;99.90;;;;;;5093412;28;20032;-61
2022/12/29 07:24:29;;;;;;;3.55;2.00;;;12.70;99.90;;;;;;5094324;28;20575;-63
2022/12/29 07:26:55;;;;;;;4.75;1.85;;;12.70;99.90;;;;;;5093797;28;20047;-60
2022/12/29 07:29:20;;;;;;;3.03;1.40;;;12.70;99.90;;;;;;5094031;28;20440;-61
2022/12/29 07:31:46;;;;;;;2.45;1.67;;;12.70;99.90;;;;;;5093668;28;20017;-55
2022/12/29 07:34:11;;;;;;;4.00;1.90;;;12.80;99.90;;;;;;5074912;28;20028;-63
2022/12/29 07:36:37;;;;;;;3.30;1.80;;;12.80;99.90;;;;;;5075389;28;20491;-60
2022/12/29 07:39:02;;;;;;;5.05;1.92;;;12.70;99.90;;;;;;5093557;28;20104;-57
2022/12/29 07:41:28;;;;;;;4.32;1.77;;;12.70;99.90;;;;;;5093695;28;20028;-58
2022/12/29 07:43:54;;;;;;;4.90;1.90;;;12.70;99.90;;;;;;5092746;28;20043;-61
2022/12/29 07:46:19;;;;;;;7.13;1.80;;;12.70;99.90;;;;;;5093080;28;20408;-59
2022/12/29 07:48:45;;;;;;;2.78;1.95;;;12.60;99.90;;;;;;5093409;28;20028;-59
2022/12/29 07:51:10;;;;;;;5.28;1.75;;;12.60;99.90;;;;;;5093939;28;20083;-60
2022/12/29 07:53:36;;;;;;;6.07;1.50;;;12.50;99.90;;;;;;5094206;28;20031;-60
2022/12/29 07:56:02;;;;;;;2.10;1.67;;;12.60;99.90;;;;;;5092083;28;20025;-59
2022/12/29 07:58:27;;;;;;;3.22;1.95;;;12.60;99.90;;;;;;5075055;28;20056;-59
2022/12/29 08:00:54;;;;;;;3.05;2.05;;;12.60;99.90;;;;;;5075043;28;20537;-57
2022/12/29 08:03:19;;;;;;;2.47;1.80;;;12.60;99.90;;;;;;5092299;28;20495;-59
2022/12/29 08:05:45;;;;;;;5.85;2.33;;;12.70;99.90;;;;;;5093101;28;20032;-61
2022/12/29 08:08:10;;;;;;;4.65;2.00;;;12.70;99.90;;;;;;5093198;28;20035;-58
2022/12/29 08:10:36;;;;;;;4.65;1.90;;;12.80;99.90;;;;;;5074557;28;20028;-57
2022/12/29 08:13:01;;;;;;;2.53;1.65;;;12.80;99.90;;;;;;5073951;28;20020;-59
2022/12/29 08:15:27;;;;;;;2.60;2.22;;;12.80;99.90;;;;;;5093058;28;20031;-62
2022/12/29 08:17:52;;;;;;;4.00;1.70;;;12.80;99.90;;;;;;5092907;28;20024;-58
2022/12/29 08:20:18;;;;;;;4.78;1.70;;;12.80;99.90;;;;;;5093657;28;20029;-60
2022/12/29 08:22:44;;;;;;;3.35;1.60;;;12.80;99.90;;;;;;5074299;28;20541;-56
2022/12/29 08:25:09;;;;;;;6.97;2.28;;;12.80;99.90;;;;;;5092879;28;20083;-57
2022/12/29 08:27:35;;;;;;;2.25;1.80;;;12.90;99.90;;;;;;5092517;28;20031;-60
2022/12/29 08:30:00;;;;;;;3.80;1.77;;;12.90;99.90;;;;;;5074422;28;20032;-61
2022/12/29 08:32:28;;;;;;;3.00;1.98;;;12.90;99.90;;;;;;5091943;28;20020;-57
2022/12/29 08:34:54;;;;;;;4.70;2.03;;;12.80;99.90;;;;;;5092880;28;20081;-57
2022/12/29 08:37:19;;;;;;;2.22;1.67;;;12.90;99.90;;;;;;5092394;28;20020;-58
2022/12/29 08:39:45;;;;;;;5.75;2.03;;;12.80;99.90;;;;;;5074210;28;20024;-62
2022/12/29 08:42:10;;;;;;;3.45;1.88;;;12.80;99.90;;;;;;5091662;28;20042;-59
2022/12/29 08:44:36;;;;;;;4.15;2.42;;;12.90;99.90;;;;;;5074330;28;20027;-61
2022/12/29 08:47:01;;;;;;;4.50;2.17;;;12.80;99.90;;;;;;5092266;28;20111;-59
2022/12/29 08:49:26;;;;;;;5.78;2.00;;;12.80;99.90;;;;;;5092044;28;20420;-60
2022/12/29 08:51:52;;;;;;;2.55;1.92;;;12.80;99.90;;;;;;5091602;28;20032;-57
2022/12/29 08:54:18;;;;;;;6.18;2.13;;;12.80;99.90;;;;;;5092019;28;20119;-60
2022/12/29 08:56:43;;;;;;;2.65;2.42;;;12.80;99.90;;;;;;5090421;28;20020;-61
2022/12/29 08:59:09;;;;;;;3.63;1.83;;;12.90;99.90;;;;;;5091856;28;20062;-61
2022/12/29 09:01:36;;;;;;;4.13;1.98;;;12.90;99.90;;;;;;5074128;28;20063;-59
2022/12/29 09:04:02;;;;;;;6.03;2.05;;;12.90;99.90;;;;;;5090767;28;20407;-61
2022/12/29 09:06:27;;;;;;;7.20;3.58;;;12.90;99.90;;;;;;5085005;28;20064;-62
2022/12/29 09:08:54;;;;;;;2.90;1.73;;;13.00;99.90;;;;;;5091154;28;20419;-60
2022/12/29 09:11:24;;;;;;;4.50;2.60;;;13.00;99.90;;;;;;5073819;28;20021;-61
2022/12/29 09:13:50;;;;;;;5.00;2.20;;;13.00;99.90;;;;;;5086651;28;20547;-59
2022/12/29 09:16:16;;;;;;;2.90;1.92;;;13.00;99.90;;;;;;5091367;28;20403;-61
2022/12/29 09:18:42;;;;;;;8.63;3.45;;;12.90;99.90;;;;;;5086027;28;20024;-60
2022/12/29 09:21:09;;;;;;;4.28;2.05;;;13.00;99.90;;;;;;5071654;28;20021;-57
2022/12/29 09:23:35;;;;;;;5.88;2.88;;;13.00;99.90;;;;;;5082899;28;20035;-59
2022/12/29 09:26:00;;;;;;;4.25;2.13;;;13.00;99.90;;;;;;5103927;28;20027;-58
2022/12/29 09:28:26;;;;;;;4.85;2.35;;;13.00;99.90;;;;;;5073427;28;20400;-62
2022/12/29 09:30:51;;;;;;;3.25;2.00;;;13.00;99.90;;;;;;5100236;28;20077;-62
2022/12/29 09:33:17;;;;;;;4.05;2.38;;;13.00;99.90;;;;;;5111012;28;20019;-61
2022/12/29 09:35:44;;;;;;;3.38;2.03;;;13.00;99.90;;;;;;5099731;28;20024;-62
2022/12/29 09:38:10;;;;;;;2.88;2.60;;;13.00;99.90;;;;;;5091634;28;20028;-61
2022/12/29 09:40:37;;;;;;;5.07;2.53;;;13.10;99.90;;;;;;5091609;28;20085;-58
2022/12/29 09:43:15;;;;;;;2.85;2.10;;;13.10;99.90;;;;;;5109864;28;20111;-61
2022/12/29 09:46:03;;;;;;;2.03;1.75;;;13.10;99.90;;;;;;5074581;28;20036;-62
2022/12/29 09:48:40;;;;;;;3.60;1.85;;;13.10;99.90;;;;;;5091474;28;20020;-59
2022/12/29 09:51:15;;;;;;;3.60;1.98;;;13.10;99.90;;;;;;5091413;28;20564;-63
2022/12/29 09:53:45;;;;;;;4.85;2.17;;;13.00;99.90;;;;;;5090317;28;20061;-63
2022/12/29 09:56:18;;;;;;;4.20;2.03;;;13.00;99.90;;;;;;5091285;28;20024;-64
2022/12/29 09:59:10;;;;;;;5.47;1.80;;;13.00;99.90;;;;;;5091127;28;20019;-62
2022/12/29 10:01:51;;;;;;;2.92;1.98;;;12.90;99.90;;;;;;5090993;28;20016;-61
2022/12/29 10:04:17;;;;;;;4.97;3.00;;;12.90;99.90;;;;;;5090670;28;20028;-60
2022/12/29 10:06:58;;;;;;;3.65;2.50;;;12.90;99.90;;;;;;5091137;28;20016;-59
2022/12/29 10:09:40;;;;;;;6.40;2.92;;;12.80;99.90;;;;;;5093649;28;20031;-61
2022/12/29 10:12:21;;;;;;;18.08;3.70;;;12.60;99.90;;;;;;5094996;28;20035;-59
2022/12/29 10:15:18;;;;;;;11.25;3.30;;;12.20;99.90;;;;;;5077150;28;20032;-63
2022/12/29 10:17:43;;;;;;;;;;;11.70;99.90;;;;;;5096420;28;20042;-60
2022/12/29 10:20:18;;;;;;;;;;;11.40;99.90;;;;;;5096022;28;19908;-57
2022/12/29 10:23:08;;;;;;;3.42;1.83;;;11.30;99.90;;;;;;5094475;28;19904;-62
2022/12/29 10:25:38;;;;;;;6.60;1.67;;;11.20;99.90;;;;;;5097046;28;20024;-54
2022/12/29 10:28:16;;;;;;;5.97;2.55;;;11.00;99.90;;;;;;5095948;28;20144;-55
2022/12/29 10:30:43;;;;;;;3.90;1.58;;;11.00;99.90;;;;;;5092845;28;20069;-60
2022/12/29 10:33:15;;;;;;;2.42;1.30;;;11.00;99.90;;;;;;5114870;28;20023;-56
2022/12/29 10:35:42;;;;;;;4.38;1.75;;;11.00;99.90;;;;;;5083130;28;20027;-60
2022/12/29 10:38:11;;;;;;;2.78;1.25;;;11.00;99.90;;;;;;5094919;28;20081;-61
2022/12/29 10:40:56;;;;;;;3.15;1.45;;;11.00;99.90;;;;;;5076622;28;20021;-63
2022/12/29 10:43:29;;;;;;;2.60;1.23;;;11.00;99.90;;;;;;5076055;28;20028;-63
2022/12/29 10:45:59;;;;;;;0.70;0.70;;;11.00;99.90;;;;;;5094684;28;20039;-60
2022/12/29 10:48:30;;;;;;;3.80;1.70;;;11.00;99.90;;;;;;5094575;28;20527;-60
2022/12/29 10:50:58;;;;;;;1.98;1.38;;;11.00;99.90;;;;;;5106129;28;20040;-62
2022/12/29 10:53:30;;;;;;;2.13;1.30;;;11.10;99.90;;;;;;5114167;28;20399;-63
2022/12/29 10:55:56;;;;;;;1.98;1.48;;;11.20;99.90;;;;;;5114710;28;20367;-61
2022/12/29 10:58:23;;;;;;;1.15;1.10;;;11.20;99.90;;;;;;5078835;28;20024;-63
2022/12/29 11:00:52;;;;;;;3.20;1.45;;;11.20;99.90;;;;;;5094080;28;20376;-62
2022/12/29 11:03:45;;;;;;;2.55;1.70;;;11.20;99.90;;;;;;5075182;28;20020;-58
2022/12/29 11:06:23;;;;;;;3.28;2.17;;;11.40;99.90;;;;;;5088138;28;20488;-59
2022/12/29 11:08:55;;;;;;;3.00;2.17;;;11.50;99.90;;;;;;5074027;28;20035;-58
2022/12/29 11:11:31;;;;;;;5.47;1.75;;;11.60;99.90;;;;;;5063893;28;20064;-59
2022/12/29 11:14:19;;;;;;;3.75;1.77;;;11.70;99.90;;;;;;5082674;28;20396;-58
2022/12/29 11:16:58;;;;;;;2.35;1.48;;;11.70;99.90;;;;;;5084120;28;20034;-57
2022/12/29 11:19:27;;;;;;;3.53;1.42;;;11.80;99.90;;;;;;5056371;28;20028;-59
2022/12/29 11:21:53;;;;;;;2.88;2.03;;;11.90;99.90;;;;;;5053416;28;20107;-60
2022/12/29 11:24:28;;;;;;;1.10;1.00;;;12.10;99.90;;;;;;5081313;28;20039;-59
2022/12/29 11:27:15;;;;;;;2.13;1.08;;;12.30;99.90;;;;;;5081203;28;20125;-61
2022/12/29 11:29:43;;;;;;;5.85;1.20;;;12.30;99.90;;;;;;5087290;28;20126;-58
2022/12/29 11:32:16;;;;;;;3.55;1.42;;;12.40;99.90;;;;;;5088839;28;20029;-57
2022/12/29 11:34:42;;;;;;;4.22;1.35;;;12.40;99.90;;;;;;5076111;28;20024;-60
2022/12/29 11:37:23;;;;;;;3.88;1.33;;;12.40;99.90;;;;;;5075632;28;20031;-61
2022/12/29 11:40:04;;;;;;;1.05;0.77;;;12.40;99.90;;;;;;5075157;28;20030;-52
2022/12/29 11:42:40;;;;;;;5.07;0.75;;;12.40;99.90;;;;;;5092676;28;20095;-58
2022/12/29 11:45:25;;;;;;;2.38;0.90;;;12.40;99.90;;;;;;5095662;28;20028;-59
2022/12/29 11:48:07;;;;;;;1.98;0.90;;;12.40;99.90;;;;;;5094893;28;20030;-61
2022/12/29 11:50:37;;;;;;;0.82;0.80;;;12.40;99.90;;;;;;5095524;28;20043;-61
2022/12/29 11:53:02;;;;;;;0.80;0.63;;;12.40;99.90;;;;;;5078890;28;20024;-60
2022/12/29 11:55:29;;;;;;;4.13;0.90;;;12.50;99.90;;;;;;5092923;28;20032;-56
2022/12/29 11:57:57;;;;;;;3.63;1.05;;;12.50;99.90;;;;;;5081975;28;20017;-56
2022/12/29 12:00:27;;;;;;;1.02;0.85;;;12.50;99.90;;;;;;5065789;28;20036;-53
2022/12/29 12:03:07;;;;;;;1.70;0.82;;;12.50;99.90;;;;;;5062582;28;20147;-58
2022/12/29 12:05:59;;;;;;;2.97;0.80;;;12.50;99.90;;;;;;5083532;28;20025;-60
2022/12/29 12:08:27;;;;;;;1.15;0.80;;;12.40;99.90;;;;;;5078814;28;20032;-60
2022/12/29 12:11:02;;;;;;;0.98;0.77;;;12.40;99.90;;;;;;5064880;28;20498;-58
2022/12/29 12:13:38;;;;;;;3.50;1.02;;;12.30;99.90;;;;;;5083306;28;20032;-60
2022/12/29 12:16:09;;;;;;;0.85;0.70;;;12.30;99.90;;;;;;5064269;28;20059;-57
2022/12/29 12:19:01;;;;;;;1.00;0.80;;;12.20;99.90;;;;;;5083447;28;20123;-60
2022/12/29 12:21:34;;;;;;;3.33;1.45;;;12.20;99.90;;;;;;5082913;28;20036;-59
2022/12/29 12:24:30;;;;;;;2.22;1.20;;;12.10;99.90;;;;;;5086943;28;20400;-60
2022/12/29 12:27:12;;;;;;;1.05;1.02;;;12.00;99.90;;;;;;5080632;28;20016;-61
2022/12/29 12:29:56;;;;;;;1.42;1.30;;;12.00;99.90;;;;;;5079680;28;20029;-58
2022/12/29 12:32:42;;;;;;;2.25;1.13;;;11.90;99.90;;;;;;5092411;28;20071;-60
2022/12/29 12:35:19;;;;;;;2.35;1.30;;;12.00;99.90;;;;;;5076562;28;20028;-54
2022/12/29 12:38:11;;;;;;;1.50;1.40;;;12.00;99.90;;;;;;5085501;28;20027;-57
2022/12/29 12:41:09;;;;;;;3.20;1.63;;;12.10;99.90;;;;;;5024026;28;20072;-58
2022/12/29 12:44:00;;;;;;;1.38;1.25;;;12.10;99.90;;;;;;5052004;28;20032;-62
2022/12/29 12:46:49;;;;;;;3.38;1.40;;;12.20;99.90;;;;;;5081263;28;20028;-62
2022/12/29 12:49:36;;;;;;;1.35;1.25;;;12.20;99.90;;;;;;5091732;28;20479;-61
2022/12/29 12:52:14;;;;;;;2.40;1.70;;;12.40;99.90;;;;;;5072683;28;20024;-62
2022/12/29 12:54:54;;;;;;;2.72;1.33;;;12.40;99.90;;;;;;5092159;28;20016;-62
2022/12/29 12:57:44;;;;;;;2.28;1.50;;;12.40;99.90;;;;;;5091492;28;20087;-56
2022/12/29 13:00:17;;;;;;;1.38;1.05;;;12.50;99.90;;;;;;5072483;28;20073;-61
2022/12/29 13:03:23;;;;;;;2.25;1.15;;;12.50;99.90;;;;;;5071975;28;20039;-60
2022/12/29 13:06:12;;;;;;;6.20;3.00;;;12.60;99.90;;;;;;5091675;28;20035;-62
2022/12/29 13:09:12;;;;;;;2.42;1.63;;;12.70;99.90;;;;;;5092118;28;20036;-61
2022/12/29 13:12:15;;;;;;;3.38;1.60;;;12.80;99.90;;;;;;5093165;28;20487;-61
2022/12/29 13:15:08;;;;;;;2.28;1.33;;;12.80;99.90;;;;;;5114290;22;20040;-44
2022/12/29 13:17:41;;;;;;;1.85;1.20;;;12.90;99.90;;;;;;5091752;28;20066;-49
2022/12/29 13:20:50;;;;;;;1.65;1.00;;;12.90;99.90;;;;;;5073391;28;20036;-52
2022/12/29 13:23:23;;;;;;;4.68;1.42;;;13.00;99.90;;;;;;5059287;28;20036;-48
2022/12/29 13:26:04;;;;;;;2.00;1.20;;;13.00;99.90;;;;;;5057820;28;20046;-46
2022/12/29 13:28:43;;;;;;;2.40;1.20;;;13.00;99.90;;;;;;5073380;28;20039;-46
2022/12/29 13:31:17;;;;;;;2.53;1.23;;;12.90;99.90;;;;;;5071123;28;20120;-46
2022/12/29 13:34:13;;;;;;;4.40;1.35;;;12.80;99.90;;;;;;5070412;28;20028;-46
2022/12/29 13:36:49;;;;;;;2.58;1.08;;;12.80;99.90;;;;;;5042436;28;20025;-49
2022/12/29 13:39:45;;;;;;;2.38;1.20;;;12.70;99.90;;;;;;5070831;28;20016;-43
2022/12/29 13:42:12;;;;;;;3.92;1.30;;;12.70;99.90;;;;;;5066237;28;20417;-46
2022/12/29 13:45:05;;;;;;;4.45;1.30;;;12.70;99.90;;;;;;5055469;28;20043;-45